sensor_id;sensor_type;location;lat;lon;timestamp;pressure;altitude;pressure_sealevel;temperature;humidity
5966;BME280;3009;43.224;27.976;2022-10-16T00:01:11;101170.88;;;10.93;81.08
5966;BME280;3009;43.224;27.976;2022-10-16T00:03:42;101176.53;;;10.91;81.13
5966;BME280;3009;43.224;27.976;2022-10-16T00:06:11;101177.94;;;10.89;81.13
5966;BME280;3009;43.224;27.976;2022-10-16T00:08:40;101172.56;;;10.89;80.78
5966;BME280;3009;43.224;27.976;2022-10-16T00:11:10;101176.91;;;10.85;80.70
5966;BME280;3009;43.224;27.976;2022-10-16T00:13:40;101179.88;;;10.83;80.86
5966;BME280;3009;43.224;27.976;2022-10-16T00:16:10;101180.75;;;10.78;80.88
5966;BME280;3009;43.224;27.976;2022-10-16T00:18:39;101183.00;;;10.71;80.96
5966;BME280;3009;43.224;27.976;2022-10-16T00:21:10;101184.66;;;10.67;81.12
5966;BME280;3009;43.224;27.976;2022-10-16T00:23:39;101184.16;;;10.65;81.00
5966;BME280;3009;43.224;27.976;2022-10-16T00:26:09;101183.13;;;10.61;80.96
5966;BME280;3009;43.224;27.976;2022-10-16T00:28:38;101185.03;;;10.60;80.68
5966;BME280;3009;43.224;27.976;2022-10-16T00:31:08;101180.03;;;10.54;81.00
5966;BME280;3009;43.224;27.976;2022-10-16T00:33:37;101183.78;;;10.53;81.08
5966;BME280;3009;43.224;27.976;2022-10-16T00:36:10;101180.28;;;10.52;80.94
5966;BME280;3009;43.224;27.976;2022-10-16T00:38:39;101181.59;;;10.55;80.46
5966;BME280;3009;43.224;27.976;2022-10-16T00:41:10;101171.63;;;10.60;80.03
5966;BME280;3009;43.224;27.976;2022-10-16T00:43:41;101175.72;;;10.53;79.99
5966;BME280;3009;43.224;27.976;2022-10-16T00:46:15;101171.41;;;10.57;79.67
5966;BME280;3009;43.224;27.976;2022-10-16T00:48:48;101174.91;;;10.52;79.65
5966;BME280;3009;43.224;27.976;2022-10-16T00:51:22;101169.28;;;10.54;79.21
5966;BME280;3009;43.224;27.976;2022-10-16T00:53:51;101168.03;;;10.46;79.50
5966;BME280;3009;43.224;27.976;2022-10-16T00:56:20;101171.44;;;10.52;79.36
5966;BME280;3009;43.224;27.976;2022-10-16T00:58:48;101170.13;;;10.49;79.39
5966;BME280;3009;43.224;27.976;2022-10-16T01:01:17;101169.84;;;10.51;79.17
5966;BME280;3009;43.224;27.976;2022-10-16T01:03:45;101166.66;;;10.49;78.92
5966;BME280;3009;43.224;27.976;2022-10-16T01:06:23;101173.19;;;10.42;79.19
5966;BME280;3009;43.224;27.976;2022-10-16T01:09:00;101171.53;;;10.46;79.04
5966;BME280;3009;43.224;27.976;2022-10-16T01:11:34;101186.78;;;10.46;78.72
5966;BME280;3009;43.224;27.976;2022-10-16T01:14:11;101172.09;;;10.43;79.07
5966;BME280;3009;43.224;27.976;2022-10-16T01:16:47;101181.56;;;10.36;79.02
5966;BME280;3009;43.224;27.976;2022-10-16T01:19:22;101189.34;;;10.37;79.17
5966;BME280;3009;43.224;27.976;2022-10-16T01:21:57;101187.72;;;10.36;79.15
5966;BME280;3009;43.224;27.976;2022-10-16T01:24:31;101190.91;;;10.38;78.89
5966;BME280;3009;43.224;27.976;2022-10-16T01:27:08;101190.44;;;10.31;79.28
5966;BME280;3009;43.224;27.976;2022-10-16T01:29:41;101184.53;;;10.34;78.78
5966;BME280;3009;43.224;27.976;2022-10-16T01:32:15;101189.91;;;10.34;78.70
5966;BME280;3009;43.224;27.976;2022-10-16T01:34:49;101203.56;;;10.33;78.88
5966;BME280;3009;43.224;27.976;2022-10-16T01:37:24;101197.97;;;10.29;78.75
5966;BME280;3009;43.224;27.976;2022-10-16T01:39:58;101193.66;;;10.28;78.69
5966;BME280;3009;43.224;27.976;2022-10-16T01:42:33;101199.31;;;10.26;78.48
5966;BME280;3009;43.224;27.976;2022-10-16T01:45:05;101200.72;;;10.24;78.44
5966;BME280;3009;43.224;27.976;2022-10-16T01:47:35;101201.31;;;10.16;78.62
5966;BME280;3009;43.224;27.976;2022-10-16T01:50:05;101196.81;;;10.11;78.57
5966;BME280;3009;43.224;27.976;2022-10-16T01:52:37;101204.56;;;10.13;78.30
5966;BME280;3009;43.224;27.976;2022-10-16T01:55:09;101206.84;;;10.00;78.59
5966;BME280;3009;43.224;27.976;2022-10-16T01:57:43;101204.22;;;9.95;78.37
5966;BME280;3009;43.224;27.976;2022-10-16T02:00:14;101203.41;;;9.94;78.51
5966;BME280;3009;43.224;27.976;2022-10-16T02:02:47;101213.81;;;10.01;78.21
5966;BME280;3009;43.224;27.976;2022-10-16T02:05:21;101213.56;;;9.98;77.98
5966;BME280;3009;43.224;27.976;2022-10-16T02:07:51;101207.19;;;9.93;78.22
5966;BME280;3009;43.224;27.976;2022-10-16T02:10:20;101210.66;;;9.94;78.11
5966;BME280;3009;43.224;27.976;2022-10-16T02:12:56;101219.72;;;9.98;77.57
5966;BME280;3009;43.224;27.976;2022-10-16T02:15:25;101214.97;;;9.90;77.51
5966;BME280;3009;43.224;27.976;2022-10-16T02:17:54;101205.47;;;10.03;76.87
5966;BME280;3009;43.224;27.976;2022-10-16T02:20:25;101215.91;;;10.04;76.29
5966;BME280;3009;43.224;27.976;2022-10-16T02:22:56;101218.34;;;10.01;76.21
5966;BME280;3009;43.224;27.976;2022-10-16T02:25:27;101214.59;;;10.02;75.84
5966;BME280;3009;43.224;27.976;2022-10-16T02:28:01;101232.28;;;10.03;75.43
5966;BME280;3009;43.224;27.976;2022-10-16T02:30:34;101238.50;;;9.98;75.02
5966;BME280;3009;43.224;27.976;2022-10-16T02:33:07;101225.66;;;9.95;75.02
5966;BME280;3009;43.224;27.976;2022-10-16T02:35:36;101227.56;;;9.89;74.76
5966;BME280;3009;43.224;27.976;2022-10-16T02:38:06;101239.06;;;9.95;74.22
5966;BME280;3009;43.224;27.976;2022-10-16T02:40:37;101240.47;;;9.87;73.99
5966;BME280;3009;43.224;27.976;2022-10-16T02:43:06;101227.00;;;9.92;73.06
5966;BME280;3009;43.224;27.976;2022-10-16T02:45:35;101216.56;;;9.91;72.72
5966;BME280;3009;43.224;27.976;2022-10-16T02:48:04;101235.31;;;9.91;72.51
5966;BME280;3009;43.224;27.976;2022-10-16T02:50:32;101246.84;;;9.91;72.51
5966;BME280;3009;43.224;27.976;2022-10-16T02:53:01;101233.53;;;9.81;72.69
5966;BME280;3009;43.224;27.976;2022-10-16T02:55:29;101236.25;;;9.76;72.81
5966;BME280;3009;43.224;27.976;2022-10-16T02:57:57;101237.94;;;9.67;73.22
5966;BME280;3009;43.224;27.976;2022-10-16T03:00:27;101239.19;;;9.45;74.24
5966;BME280;3009;43.224;27.976;2022-10-16T03:02:55;101241.81;;;9.05;76.08
5966;BME280;3009;43.224;27.976;2022-10-16T03:05:23;101241.91;;;8.95;76.70
5966;BME280;3009;43.224;27.976;2022-10-16T03:07:51;101244.84;;;8.94;76.93
5966;BME280;3009;43.224;27.976;2022-10-16T03:10:20;101240.56;;;8.93;76.82
5966;BME280;3009;43.224;27.976;2022-10-16T03:12:48;101241.91;;;8.95;76.97
5966;BME280;3009;43.224;27.976;2022-10-16T03:15:16;101250.69;;;9.01;76.54
5966;BME280;3009;43.224;27.976;2022-10-16T03:17:46;101256.34;;;8.94;77.11
5966;BME280;3009;43.224;27.976;2022-10-16T03:20:14;101257.94;;;8.95;77.22
5966;BME280;3009;43.224;27.976;2022-10-16T03:22:42;101262.72;;;9.03;76.99
5966;BME280;3009;43.224;27.976;2022-10-16T03:25:10;101254.38;;;9.10;76.88
5966;BME280;3009;43.224;27.976;2022-10-16T03:27:38;101253.53;;;9.20;76.48
5966;BME280;3009;43.224;27.976;2022-10-16T03:30:08;101246.78;;;9.28;76.29
5966;BME280;3009;43.224;27.976;2022-10-16T03:32:36;101242.28;;;9.23;76.01
5966;BME280;3009;43.224;27.976;2022-10-16T03:35:07;101248.78;;;9.07;76.70
5966;BME280;3009;43.224;27.976;2022-10-16T03:37:35;101243.44;;;9.07;76.94
5966;BME280;3009;43.224;27.976;2022-10-16T03:40:04;101249.28;;;9.14;76.70
5966;BME280;3009;43.224;27.976;2022-10-16T03:42:32;101246.06;;;9.12;76.57
5966;BME280;3009;43.224;27.976;2022-10-16T03:45:00;101260.09;;;8.93;77.10
5966;BME280;3009;43.224;27.976;2022-10-16T03:47:28;101249.94;;;8.90;77.37
5966;BME280;3009;43.224;27.976;2022-10-16T03:49:57;101252.69;;;8.69;77.79
5966;BME280;3009;43.224;27.976;2022-10-16T03:52:27;101249.75;;;8.66;78.21
5966;BME280;3009;43.224;27.976;2022-10-16T03:54:55;101255.38;;;8.64;78.45
5966;BME280;3009;43.224;27.976;2022-10-16T03:57:23;101251.94;;;8.59;78.82
5966;BME280;3009;43.224;27.976;2022-10-16T03:59:51;101249.22;;;8.69;78.55
5966;BME280;3009;43.224;27.976;2022-10-16T04:02:20;101249.75;;;8.66;78.39
5966;BME280;3009;43.224;27.976;2022-10-16T04:04:48;101252.19;;;8.57;78.66
5966;BME280;3009;43.224;27.976;2022-10-16T04:07:16;101242.03;;;8.64;78.25
5966;BME280;3009;43.224;27.976;2022-10-16T04:09:45;101243.31;;;8.72;78.19
5966;BME280;3009;43.224;27.976;2022-10-16T04:12:14;101253.94;;;8.87;77.94
5966;BME280;3009;43.224;27.976;2022-10-16T04:14:42;101254.19;;;8.96;77.39
5966;BME280;3009;43.224;27.976;2022-10-16T04:17:10;101257.91;;;9.00;76.88
5966;BME280;3009;43.224;27.976;2022-10-16T04:19:38;101267.06;;;8.84;77.05
5966;BME280;3009;43.224;27.976;2022-10-16T04:22:06;101257.78;;;8.71;77.35
5966;BME280;3009;43.224;27.976;2022-10-16T04:24:34;101262.06;;;8.62;78.00
5966;BME280;3009;43.224;27.976;2022-10-16T04:27:04;101261.06;;;8.47;78.15
5966;BME280;3009;43.224;27.976;2022-10-16T04:29:32;101266.94;;;8.49;78.12
5966;BME280;3009;43.224;27.976;2022-10-16T04:32:00;101270.94;;;8.52;78.25
5966;BME280;3009;43.224;27.976;2022-10-16T04:34:28;101265.06;;;8.50;78.28
5966;BME280;3009;43.224;27.976;2022-10-16T04:36:56;101271.22;;;8.50;78.06
5966;BME280;3009;43.224;27.976;2022-10-16T04:39:24;101276.03;;;8.48;78.26
5966;BME280;3009;43.224;27.976;2022-10-16T04:41:53;101281.09;;;8.34;78.81
5966;BME280;3009;43.224;27.976;2022-10-16T04:44:22;101281.09;;;8.45;78.60
5966;BME280;3009;43.224;27.976;2022-10-16T04:46:51;101282.97;;;8.49;78.54
5966;BME280;3009;43.224;27.976;2022-10-16T04:49:19;101285.06;;;8.63;78.38
5966;BME280;3009;43.224;27.976;2022-10-16T04:51:47;101282.06;;;8.80;77.69
5966;BME280;3009;43.224;27.976;2022-10-16T04:54:15;101286.31;;;8.86;77.35
5966;BME280;3009;43.224;27.976;2022-10-16T04:56:43;101294.56;;;9.00;76.93
5966;BME280;3009;43.224;27.976;2022-10-16T04:59:14;101286.56;;;9.00;77.01
5966;BME280;3009;43.224;27.976;2022-10-16T05:01:44;101289.50;;;8.98;77.02
5966;BME280;3009;43.224;27.976;2022-10-16T05:04:12;101292.94;;;9.04;76.73
5966;BME280;3009;43.224;27.976;2022-10-16T05:06:42;101291.50;;;9.22;76.07
5966;BME280;3009;43.224;27.976;2022-10-16T05:09:10;101300.53;;;9.31;75.60
5966;BME280;3009;43.224;27.976;2022-10-16T05:11:38;101305.84;;;9.42;75.16
5966;BME280;3009;43.224;27.976;2022-10-16T05:14:06;101296.72;;;9.48;74.97
5966;BME280;3009;43.224;27.976;2022-10-16T05:16:34;101306.78;;;9.61;74.31
5966;BME280;3009;43.224;27.976;2022-10-16T05:19:04;101313.13;;;9.75;73.59
5966;BME280;3009;43.224;27.976;2022-10-16T05:21:52;101322.41;;;9.88;72.95
5966;BME280;3009;43.224;27.976;2022-10-16T05:24:20;101327.41;;;10.00;72.62
5966;BME280;3009;43.224;27.976;2022-10-16T05:26:49;101335.72;;;9.99;72.40
5966;BME280;3009;43.224;27.976;2022-10-16T05:29:17;101327.00;;;10.17;71.35
5966;BME280;3009;43.224;27.976;2022-10-16T05:31:45;101329.09;;;10.20;71.21
5966;BME280;3009;43.224;27.976;2022-10-16T05:34:15;101328.03;;;10.21;71.03
5966;BME280;3009;43.224;27.976;2022-10-16T05:36:43;101329.88;;;10.26;71.12
5966;BME280;3009;43.224;27.976;2022-10-16T05:39:13;101323.94;;;10.29;70.51
5966;BME280;3009;43.224;27.976;2022-10-16T05:41:41;101331.75;;;10.25;70.89
5966;BME280;3009;43.224;27.976;2022-10-16T05:44:10;101327.13;;;10.36;70.58
5966;BME280;3009;43.224;27.976;2022-10-16T05:46:38;101346.44;;;10.62;69.26
5966;BME280;3009;43.224;27.976;2022-10-16T05:49:06;101345.28;;;10.69;69.15
5966;BME280;3009;43.224;27.976;2022-10-16T05:51:35;101350.84;;;10.77;68.66
5966;BME280;3009;43.224;27.976;2022-10-16T05:54:03;101350.06;;;10.77;68.84
5966;BME280;3009;43.224;27.976;2022-10-16T05:56:32;101358.78;;;10.88;68.01
5966;BME280;3009;43.224;27.976;2022-10-16T05:59:00;101356.94;;;10.83;68.54
5966;BME280;3009;43.224;27.976;2022-10-16T06:01:28;101364.72;;;10.85;68.23
5966;BME280;3009;43.224;27.976;2022-10-16T06:03:57;101375.81;;;11.02;67.84
5966;BME280;3009;43.224;27.976;2022-10-16T06:06:27;101366.47;;;11.18;67.25
5966;BME280;3009;43.224;27.976;2022-10-16T06:08:57;101362.69;;;11.20;67.20
5966;BME280;3009;43.224;27.976;2022-10-16T06:11:28;101368.31;;;11.23;67.07
5966;BME280;3009;43.224;27.976;2022-10-16T06:14:01;101372.22;;;11.31;66.68
5966;BME280;3009;43.224;27.976;2022-10-16T06:16:34;101371.56;;;11.39;66.51
5966;BME280;3009;43.224;27.976;2022-10-16T06:19:03;101372.97;;;11.56;66.55
5966;BME280;3009;43.224;27.976;2022-10-16T06:21:33;101377.34;;;11.70;65.77
5966;BME280;3009;43.224;27.976;2022-10-16T06:24:03;101382.63;;;11.76;65.86
5966;BME280;3009;43.224;27.976;2022-10-16T06:26:32;101390.41;;;11.77;66.55
5966;BME280;3009;43.224;27.976;2022-10-16T06:29:00;101378.06;;;11.76;66.46
5966;BME280;3009;43.224;27.976;2022-10-16T06:31:28;101383.06;;;11.83;66.21
5966;BME280;3009;43.224;27.976;2022-10-16T06:34:00;101378.91;;;11.91;66.23
5966;BME280;3009;43.224;27.976;2022-10-16T06:36:31;101398.69;;;12.00;66.31
5966;BME280;3009;43.224;27.976;2022-10-16T06:38:59;101396.94;;;12.09;65.90
5966;BME280;3009;43.224;27.976;2022-10-16T06:41:29;101408.72;;;12.13;66.05
5966;BME280;3009;43.224;27.976;2022-10-16T06:43:57;101386.63;;;12.16;66.43
5966;BME280;3009;43.224;27.976;2022-10-16T06:46:26;101399.59;;;12.28;66.14
5966;BME280;3009;43.224;27.976;2022-10-16T06:48:54;101408.59;;;12.37;65.77
5966;BME280;3009;43.224;27.976;2022-10-16T06:51:24;101413.38;;;12.40;65.07
5966;BME280;3009;43.224;27.976;2022-10-16T06:53:54;101414.41;;;12.45;65.39
5966;BME280;3009;43.224;27.976;2022-10-16T06:56:33;101415.00;;;12.55;65.11
5966;BME280;3009;43.224;27.976;2022-10-16T06:59:02;101425.78;;;12.55;64.76
5966;BME280;3009;43.224;27.976;2022-10-16T07:01:30;101420.81;;;12.63;65.24
5966;BME280;3009;43.224;27.976;2022-10-16T07:04:00;101422.63;;;12.81;64.13
5966;BME280;3009;43.224;27.976;2022-10-16T07:06:31;101425.84;;;12.83;64.07
5966;BME280;3009;43.224;27.976;2022-10-16T07:09:02;101424.53;;;12.94;63.45
5966;BME280;3009;43.224;27.976;2022-10-16T07:11:33;101428.75;;;13.01;63.06
5966;BME280;3009;43.224;27.976;2022-10-16T07:14:02;101432.22;;;13.01;63.06
5966;BME280;3009;43.224;27.976;2022-10-16T07:16:32;101422.63;;;12.95;63.40
5966;BME280;3009;43.224;27.976;2022-10-16T07:19:02;101436.91;;;13.23;62.92
5966;BME280;3009;43.224;27.976;2022-10-16T07:21:32;101442.03;;;13.39;61.65
5966;BME280;3009;43.224;27.976;2022-10-16T07:24:04;101446.81;;;13.42;61.46
5966;BME280;3009;43.224;27.976;2022-10-16T07:26:35;101448.13;;;13.44;60.99
5966;BME280;3009;43.224;27.976;2022-10-16T07:29:06;101445.13;;;13.46;60.83
5966;BME280;3009;43.224;27.976;2022-10-16T07:31:35;101436.66;;;13.53;61.17
5966;BME280;3009;43.224;27.976;2022-10-16T07:34:05;101445.41;;;13.58;60.82
5966;BME280;3009;43.224;27.976;2022-10-16T07:36:33;101450.75;;;13.72;59.99
5966;BME280;3009;43.224;27.976;2022-10-16T07:39:01;101448.22;;;13.90;60.12
5966;BME280;3009;43.224;27.976;2022-10-16T07:41:29;101449.53;;;13.92;59.59
5966;BME280;3009;43.224;27.976;2022-10-16T07:44:00;101453.19;;;13.96;59.15
5966;BME280;3009;43.224;27.976;2022-10-16T07:46:29;101442.69;;;14.09;58.63
5966;BME280;3009;43.224;27.976;2022-10-16T07:48:57;101455.44;;;14.17;58.29
5966;BME280;3009;43.224;27.976;2022-10-16T07:51:26;101455.31;;;14.22;57.52
5966;BME280;3009;43.224;27.976;2022-10-16T07:53:54;101463.47;;;14.31;57.20
5966;BME280;3009;43.224;27.976;2022-10-16T07:56:23;101463.16;;;14.32;57.63
5966;BME280;3009;43.224;27.976;2022-10-16T07:58:51;101446.16;;;14.54;56.42
5966;BME280;3009;43.224;27.976;2022-10-16T08:01:21;101459.84;;;14.58;56.20
5966;BME280;3009;43.224;27.976;2022-10-16T08:03:50;101451.03;;;14.66;55.64
5966;BME280;3009;43.224;27.976;2022-10-16T08:06:20;101444.53;;;14.67;55.42
5966;BME280;3009;43.224;27.976;2022-10-16T08:08:54;101472.28;;;14.91;54.31
5966;BME280;3009;43.224;27.976;2022-10-16T08:11:22;101455.38;;;14.76;53.42
5966;BME280;3009;43.224;27.976;2022-10-16T08:13:51;101460.44;;;14.78;53.70
5966;BME280;3009;43.224;27.976;2022-10-16T08:16:21;101462.00;;;15.01;53.70
5966;BME280;3009;43.224;27.976;2022-10-16T08:18:49;101448.75;;;14.91;52.48
5966;BME280;3009;43.224;27.976;2022-10-16T08:21:19;101459.03;;;14.80;53.77
5966;BME280;3009;43.224;27.976;2022-10-16T08:23:48;101459.88;;;14.89;52.37
5966;BME280;3009;43.224;27.976;2022-10-16T08:26:24;101463.28;;;15.04;52.69
5966;BME280;3009;43.224;27.976;2022-10-16T08:28:52;101452.59;;;14.99;52.75
5966;BME280;3009;43.224;27.976;2022-10-16T08:31:22;101467.25;;;15.06;52.06
5966;BME280;3009;43.224;27.976;2022-10-16T08:33:51;101465.13;;;14.86;52.57
5966;BME280;3009;43.224;27.976;2022-10-16T08:36:19;101458.81;;;14.99;52.60
5966;BME280;3009;43.224;27.976;2022-10-16T08:38:49;101466.44;;;14.97;52.28
5966;BME280;3009;43.224;27.976;2022-10-16T08:47:38;101464.19;;;14.91;51.76
5966;BME280;3009;43.224;27.976;2022-10-16T08:50:12;101471.56;;;15.07;52.13
5966;BME280;3009;43.224;27.976;2022-10-16T08:52:43;101473.63;;;15.11;51.87
5966;BME280;3009;43.224;27.976;2022-10-16T08:55:24;101472.25;;;15.22;51.58
5966;BME280;3009;43.224;27.976;2022-10-16T08:57:56;101477.66;;;15.31;50.63
5966;BME280;3009;43.224;27.976;2022-10-16T09:00:26;101483.44;;;15.38;50.65
5966;BME280;3009;43.224;27.976;2022-10-16T09:03:05;101482.06;;;15.09;51.06
5966;BME280;3009;43.224;27.976;2022-10-16T09:05:50;101480.75;;;15.06;51.56
5966;BME280;3009;43.224;27.976;2022-10-16T09:08:27;101481.00;;;15.19;50.75
5966;BME280;3009;43.224;27.976;2022-10-16T09:11:00;101496.59;;;15.31;50.19
5966;BME280;3009;43.224;27.976;2022-10-16T09:13:35;101482.16;;;15.35;49.68
5966;BME280;3009;43.224;27.976;2022-10-16T09:16:15;101491.25;;;15.48;50.44
5966;BME280;3009;43.224;27.976;2022-10-16T09:18:54;101479.91;;;15.29;52.73
5966;BME280;3009;43.224;27.976;2022-10-16T09:21:28;101478.25;;;15.10;51.39
5966;BME280;3009;43.224;27.976;2022-10-16T09:23:58;101485.50;;;15.41;51.80
5966;BME280;3009;43.224;27.976;2022-10-16T09:26:28;101478.63;;;15.26;52.84
5966;BME280;3009;43.224;27.976;2022-10-16T09:28:56;101477.31;;;15.15;53.43
5966;BME280;3009;43.224;27.976;2022-10-16T09:31:24;101474.34;;;15.25;52.35
5966;BME280;3009;43.224;27.976;2022-10-16T09:33:58;101478.53;;;15.49;52.83
5966;BME280;3009;43.224;27.976;2022-10-16T09:36:29;101477.78;;;15.66;51.35
5966;BME280;3009;43.224;27.976;2022-10-16T09:39:05;101480.28;;;15.53;52.76
5966;BME280;3009;43.224;27.976;2022-10-16T09:41:35;101474.34;;;15.83;51.40
5966;BME280;3009;43.224;27.976;2022-10-16T09:44:18;101475.38;;;15.55;51.95
5966;BME280;3009;43.224;27.976;2022-10-16T09:46:47;101469.97;;;15.55;52.15
5966;BME280;3009;43.224;27.976;2022-10-16T09:49:24;101475.78;;;15.31;52.77
5966;BME280;3009;43.224;27.976;2022-10-16T09:52:03;101488.88;;;15.55;52.35
5966;BME280;3009;43.224;27.976;2022-10-16T09:54:32;101477.28;;;15.64;51.57
5966;BME280;3009;43.224;27.976;2022-10-16T09:57:06;101462.66;;;15.56;52.22
5966;BME280;3009;43.224;27.976;2022-10-16T09:59:46;101461.88;;;15.73;51.17
5966;BME280;3009;43.224;27.976;2022-10-16T10:02:15;101467.59;;;15.54;51.54
5966;BME280;3009;43.224;27.976;2022-10-16T10:04:49;101463.78;;;15.64;51.61
5966;BME280;3009;43.224;27.976;2022-10-16T10:07:21;101457.25;;;15.65;50.63
5966;BME280;3009;43.224;27.976;2022-10-16T10:09:52;101470.63;;;15.61;49.99
5966;BME280;3009;43.224;27.976;2022-10-16T10:12:23;101478.69;;;15.44;50.30
5966;BME280;3009;43.224;27.976;2022-10-16T10:14:54;101452.63;;;15.65;51.33
5966;BME280;3009;43.224;27.976;2022-10-16T10:17:25;101473.81;;;15.72;50.41
5966;BME280;3009;43.224;27.976;2022-10-16T10:19:58;101465.53;;;15.77;50.31
5966;BME280;3009;43.224;27.976;2022-10-16T10:22:32;101469.03;;;15.69;50.19
5966;BME280;3009;43.224;27.976;2022-10-16T10:25:19;101452.84;;;15.77;50.33
5966;BME280;3009;43.224;27.976;2022-10-16T10:28:15;101463.84;;;15.90;49.42
5966;BME280;3009;43.224;27.976;2022-10-16T10:30:52;101459.06;;;15.78;48.71
5966;BME280;3009;43.224;27.976;2022-10-16T10:33:31;101457.91;;;15.70;49.77
5966;BME280;3009;43.224;27.976;2022-10-16T10:36:12;101460.63;;;15.70;50.72
5966;BME280;3009;43.224;27.976;2022-10-16T10:38:47;101455.38;;;15.74;51.00
5966;BME280;3009;43.224;27.976;2022-10-16T10:44:29;101463.53;;;15.83;49.70
5966;BME280;3009;43.224;27.976;2022-10-16T10:47:05;101467.97;;;15.79;50.39
5966;BME280;3009;43.224;27.976;2022-10-16T10:49:46;101464.00;;;16.02;50.44
5966;BME280;3009;43.224;27.976;2022-10-16T10:52:34;101461.00;;;16.12;50.37
5966;BME280;3009;43.224;27.976;2022-10-16T10:55:11;101467.66;;;15.89;48.79
5966;BME280;3009;43.224;27.976;2022-10-16T10:57:53;101453.94;;;15.76;49.50
5966;BME280;3009;43.224;27.976;2022-10-16T11:00:30;101447.72;;;15.76;49.70
5966;BME280;3009;43.224;27.976;2022-10-16T11:03:11;101450.44;;;15.67;50.00
5966;BME280;3009;43.224;27.976;2022-10-16T11:05:47;101442.28;;;15.50;50.67
5966;BME280;3009;43.224;27.976;2022-10-16T11:08:19;101432.59;;;15.57;50.48
5966;BME280;3009;43.224;27.976;2022-10-16T11:10:52;101429.44;;;15.73;48.88
5966;BME280;3009;43.224;27.976;2022-10-16T11:13:28;101427.59;;;15.82;48.59
5966;BME280;3009;43.224;27.976;2022-10-16T11:16:00;101436.78;;;16.07;48.47
5966;BME280;3009;43.224;27.976;2022-10-16T11:18:37;101442.66;;;15.66;48.98
5966;BME280;3009;43.224;27.976;2022-10-16T11:21:09;101439.78;;;15.71;49.78
5966;BME280;3009;43.224;27.976;2022-10-16T11:23:44;101451.09;;;15.82;50.02
5966;BME280;3009;43.224;27.976;2022-10-16T11:26:19;101446.66;;;15.86;50.95
5966;BME280;3009;43.224;27.976;2022-10-16T11:28:50;101447.28;;;16.00;50.40
5966;BME280;3009;43.224;27.976;2022-10-16T11:31:26;101444.13;;;15.81;49.79
5966;BME280;3009;43.224;27.976;2022-10-16T11:34:02;101451.09;;;15.82;49.61
5966;BME280;3009;43.224;27.976;2022-10-16T11:36:36;101456.50;;;15.82;49.40
5966;BME280;3009;43.224;27.976;2022-10-16T11:39:16;101445.53;;;15.78;50.03
5966;BME280;3009;43.224;27.976;2022-10-16T11:41:50;101461.56;;;15.66;48.65
5966;BME280;3009;43.224;27.976;2022-10-16T11:44:32;101458.06;;;15.74;49.65
5966;BME280;3009;43.224;27.976;2022-10-16T11:47:09;101459.38;;;15.94;49.27
5966;BME280;3009;43.224;27.976;2022-10-16T11:50:03;101465.75;;;15.81;49.52
5966;BME280;3009;43.224;27.976;2022-10-16T11:52:39;101450.75;;;15.74;48.96
5966;BME280;3009;43.224;27.976;2022-10-16T11:55:15;101455.25;;;15.88;49.53
5966;BME280;3009;43.224;27.976;2022-10-16T11:57:47;101444.09;;;15.89;48.61
5966;BME280;3009;43.224;27.976;2022-10-16T12:00:22;101449.84;;;15.88;47.75
5966;BME280;3009;43.224;27.976;2022-10-16T12:02:59;101442.84;;;15.95;48.90
5966;BME280;3009;43.224;27.976;2022-10-16T12:05:39;101460.34;;;15.81;48.01
5966;BME280;3009;43.224;27.976;2022-10-16T12:08:15;101448.03;;;15.74;48.77
5966;BME280;3009;43.224;27.976;2022-10-16T12:10:47;101443.41;;;15.57;49.58
5966;BME280;3009;43.224;27.976;2022-10-16T12:13:33;101450.09;;;15.60;49.25
5966;BME280;3009;43.224;27.976;2022-10-16T12:16:06;101465.25;;;15.79;48.23
5966;BME280;3009;43.224;27.976;2022-10-16T12:18:34;101456.78;;;15.71;48.62
5966;BME280;3009;43.224;27.976;2022-10-16T12:21:03;101449.81;;;15.70;48.14
5966;BME280;3009;43.224;27.976;2022-10-16T12:23:37;101447.13;;;15.79;48.23
5966;BME280;3009;43.224;27.976;2022-10-16T12:26:07;101466.06;;;15.97;47.94
5966;BME280;3009;43.224;27.976;2022-10-16T12:28:35;101467.34;;;15.90;48.40
5966;BME280;3009;43.224;27.976;2022-10-16T12:31:06;101461.69;;;15.52;48.99
5966;BME280;3009;43.224;27.976;2022-10-16T12:33:37;101465.34;;;15.56;49.36
5966;BME280;3009;43.224;27.976;2022-10-16T12:36:13;101465.84;;;15.67;49.88
5966;BME280;3009;43.224;27.976;2022-10-16T12:38:47;101465.06;;;15.66;49.63
5966;BME280;3009;43.224;27.976;2022-10-16T12:41:26;101471.25;;;15.67;48.83
5966;BME280;3009;43.224;27.976;2022-10-16T12:43:55;101477.47;;;15.67;48.54
5966;BME280;3009;43.224;27.976;2022-10-16T12:46:34;101497.97;;;15.59;48.16
5966;BME280;3009;43.224;27.976;2022-10-16T12:49:21;101476.16;;;15.56;47.95
5966;BME280;3009;43.224;27.976;2022-10-16T12:51:51;101486.69;;;15.66;47.45
5966;BME280;3009;43.224;27.976;2022-10-16T12:54:28;101482.22;;;15.62;47.61
5966;BME280;3009;43.224;27.976;2022-10-16T12:57:09;101491.59;;;15.55;47.73
5966;BME280;3009;43.224;27.976;2022-10-16T12:59:46;101482.81;;;15.50;47.70
5966;BME280;3009;43.224;27.976;2022-10-16T13:02:48;101485.88;;;15.57;47.43
5966;BME280;3009;43.224;27.976;2022-10-16T13:05:30;101489.03;;;15.41;47.96
5966;BME280;3009;43.224;27.976;2022-10-16T13:08:15;101477.91;;;15.43;47.88
5966;BME280;3009;43.224;27.976;2022-10-16T13:10:58;101485.97;;;15.34;47.67
5966;BME280;3009;43.224;27.976;2022-10-16T13:16:45;101474.88;;;15.45;48.08
5966;BME280;3009;43.224;27.976;2022-10-16T13:19:24;101486.13;;;15.38;48.34
5966;BME280;3009;43.224;27.976;2022-10-16T13:22:00;101493.59;;;15.41;48.11
5966;BME280;3009;43.224;27.976;2022-10-16T13:24:46;101499.94;;;15.36;48.02
5966;BME280;3009;43.224;27.976;2022-10-16T13:27:28;101485.00;;;15.30;47.65
5966;BME280;3009;43.224;27.976;2022-10-16T13:30:11;101493.16;;;15.48;48.05
5966;BME280;3009;43.224;27.976;2022-10-16T13:32:45;101497.25;;;15.36;47.62
5966;BME280;3009;43.224;27.976;2022-10-16T13:35:21;101482.28;;;15.30;47.98
5966;BME280;3009;43.224;27.976;2022-10-16T13:37:49;101486.41;;;15.28;47.72
5966;BME280;3009;43.224;27.976;2022-10-16T13:40:20;101488.31;;;15.27;48.30